Time;durP1;ratioP1;P1;durP2;ratioP2;P2;SDS_P1;SDS_P2;PMS_P1;PMS_P2;Temp;Humidity;BMP_temperature;BMP_pressure;BME280_temperature;BME280_humidity;BME280_pressure;Samples;Min_cycle;Max_cycle;Signal;HPM_P1;HPM_P2
2022/05/08 00:02:24;;;;;;;5.82;4.60;;;;;;;13.82;100.00;100872.28;5590054;31;33527;-67
2022/05/08 00:05:27;;;;;;;5.55;4.60;;;;;;;13.86;100.00;100862.06;5590017;31;33369;-67
2022/05/08 00:08:30;;;;;;;5.97;5.03;;;;;;;13.77;100.00;100865.81;5590413;31;34209;-67
2022/05/08 00:11:33;;;;;;;8.88;5.37;;;;;;;13.64;100.00;100860.22;5589397;31;34141;-67
2022/05/08 00:14:35;;;;;;;8.43;5.00;;;;;;;13.61;100.00;100860.56;5590859;31;34278;-67
2022/05/08 00:17:38;;;;;;;8.27;5.82;;;;;;;13.62;100.00;100860.41;5589443;31;32793;-67
2022/05/08 00:20:41;;;;;;;7.60;5.68;;;;;;;13.66;100.00;100851.03;5590790;31;34375;-68
2022/05/08 00:23:44;;;;;;;7.47;5.43;;;;;;;13.53;100.00;100850.78;5589787;31;34972;-67
2022/05/08 00:26:46;;;;;;;9.82;5.80;;;;;;;13.49;100.00;100852.97;5590410;31;34278;-67
2022/05/08 00:29:49;;;;;;;6.70;5.43;;;;;;;13.52;100.00;100848.28;5590393;31;34088;-67
2022/05/08 00:32:51;;;;;;;7.80;5.45;;;;;;;13.42;100.00;100849.34;5589712;31;32826;-67
2022/05/08 00:35:54;;;;;;;8.40;5.80;;;;;;;13.46;100.00;100839.16;5589501;31;32615;-67
2022/05/08 00:38:57;;;;;;;7.68;5.32;;;;;;;13.44;100.00;100841.19;5589502;31;34263;-67
2022/05/08 00:42:00;;;;;;;7.87;5.90;;;;;;;13.42;100.00;100838.69;5590270;31;34241;-68
2022/05/08 00:45:04;;;;;;;9.50;5.68;;;;;;;13.44;100.00;100839.34;5589513;31;33289;-67
2022/05/08 00:48:08;;;;;;;7.50;5.32;;;;;;;13.44;100.00;100831.34;5589366;31;32803;-67
2022/05/08 00:51:13;;;;;;;9.25;6.35;;;;;;;13.42;100.00;100830.69;5590423;31;34902;-67
2022/05/08 00:54:16;;;;;;;8.35;5.78;;;;;;;13.38;100.00;100833.87;5589196;31;34251;-67
2022/05/08 00:57:19;;;;;;;8.25;6.00;;;;;;;13.26;100.00;100829.97;5590136;31;34904;-67
2022/05/08 01:00:23;;;;;;;8.85;5.90;;;;;;;13.06;100.00;100837.50;5589688;31;32711;-67
2022/05/08 01:03:26;;;;;;;8.55;5.80;;;;;;;12.97;100.00;100838.53;5589200;31;33023;-67
2022/05/08 01:06:32;;;;;;;7.00;5.30;;;;;;;12.88;100.00;100834.22;5589234;31;34237;-67
2022/05/08 01:09:34;;;;;;;9.13;5.32;;;;;;;12.76;100.00;100840.94;5589370;31;32893;-68
2022/05/08 01:12:44;;;;;;;8.05;5.60;;;;;;;12.93;100.00;100827.37;5590059;31;34169;-67
2022/05/08 01:15:48;;;;;;;9.15;5.18;;;;;;;12.91;100.00;100836.56;5590225;31;34417;-67
2022/05/08 01:18:51;;;;;;;8.20;5.72;;;;;;;12.94;100.00;100831.72;5590003;31;34631;-67
2022/05/08 01:21:53;;;;;;;6.78;5.72;;;;;;;13.03;100.00;100828.00;5590294;31;34177;-67
2022/05/08 01:24:58;;;;;;;7.03;5.07;;;;;;;13.01;100.00;100826.53;5589900;31;34130;-67
2022/05/08 01:28:04;;;;;;;7.62;5.62;;;;;;;12.89;100.00;100823.41;5590148;31;34602;-67
2022/05/08 01:31:07;;;;;;;8.15;5.43;;;;;;;12.86;100.00;100830.91;5589925;31;34843;-67
2022/05/08 01:34:10;;;;;;;9.07;5.80;;;;;;;12.93;100.00;100834.53;5589765;31;34286;-67
2022/05/08 01:37:13;;;;;;;6.03;5.20;;;;;;;12.92;100.00;100828.41;5588825;31;33011;-68
2022/05/08 01:40:17;;;;;;;6.90;5.35;;;;;;;12.78;100.00;100828.28;5590029;31;34854;-68
2022/05/08 01:43:20;;;;;;;8.25;5.47;;;;;;;12.82;100.00;100834.94;5589821;31;34060;-67
2022/05/08 01:46:22;;;;;;;6.35;5.18;;;;;;;12.73;100.00;100825.31;5576026;31;32644;-68
2022/05/08 01:49:25;;;;;;;7.43;5.97;;;;;;;12.70;100.00;100831.78;5589615;31;34144;-68
2022/05/08 01:52:28;;;;;;;6.90;5.00;;;;;;;12.76;100.00;100830.28;5589677;31;34650;-67
2022/05/08 01:55:31;;;;;;;7.03;5.22;;;;;;;12.70;100.00;100818.47;5589657;31;34338;-67
2022/05/08 01:58:34;;;;;;;7.82;5.57;;;;;;;12.62;100.00;100822.00;5588978;31;34803;-67
2022/05/08 02:01:37;;;;;;;5.68;4.90;;;;;;;12.59;100.00;100822.31;5589541;31;34269;-68
2022/05/08 02:04:40;;;;;;;7.78;5.90;;;;;;;12.52;100.00;100829.34;5589124;31;34314;-67
2022/05/08 02:07:44;;;;;;;9.02;5.62;;;;;;;12.48;100.00;100822.69;5589512;31;34109;-68
2022/05/08 02:10:47;;;;;;;7.35;5.87;;;;;;;12.43;100.00;100829.53;5589456;31;34225;-68
2022/05/08 02:13:50;;;;;;;6.87;5.60;;;;;;;12.29;100.00;100824.88;5589439;31;34308;-68
2022/05/08 02:16:52;;;;;;;9.75;6.10;;;;;;;12.19;100.00;100819.75;5588715;31;32784;-68
2022/05/08 02:19:56;;;;;;;10.18;6.03;;;;;;;12.15;100.00;100823.75;5589445;31;35397;-68
2022/05/08 02:22:59;;;;;;;8.45;5.85;;;;;;;12.13;100.00;100826.56;5588684;31;32709;-68
2022/05/08 02:26:03;;;;;;;8.05;6.18;;;;;;;12.09;100.00;100819.09;5588347;31;32776;-67
2022/05/08 02:29:06;;;;;;;7.57;5.82;;;;;;;12.08;100.00;100820.06;5589279;31;34153;-67
2022/05/08 02:32:08;;;;;;;9.55;5.78;;;;;;;12.27;100.00;100822.38;5589249;31;34858;-67
2022/05/08 02:35:12;;;;;;;9.27;6.43;;;;;;;12.32;100.00;100827.19;5588587;31;33491;-68
2022/05/08 02:38:14;;;;;;;8.13;6.35;;;;;;;12.16;100.00;100826.22;5589157;31;34551;-68
2022/05/08 02:41:17;;;;;;;10.63;5.87;;;;;;;12.04;100.00;100826.72;5589164;31;34112;-67
2022/05/08 02:44:20;;;;;;;9.75;6.35;;;;;;;11.97;100.00;100833.69;5588395;31;34231;-68
2022/05/08 02:47:23;;;;;;;8.23;6.53;;;;;;;11.86;100.00;100829.53;5588978;31;34305;-68
2022/05/08 02:50:26;;;;;;;8.27;6.50;;;;;;;11.79;100.00;100836.50;5588292;31;33838;-69
2022/05/08 02:53:28;;;;;;;7.32;6.15;;;;;;;11.75;100.00;100833.34;5589040;31;34141;-68
2022/05/08 02:59:52;;;;;;;9.43;6.60;;;;;;;11.67;100.00;100832.47;5588894;31;34286;-67
2022/05/08 03:02:55;;;;;;;10.43;6.82;;;;;;;11.65;100.00;100834.47;5588895;31;34887;-68
2022/05/08 03:05:58;;;;;;;8.60;6.43;;;;;;;11.62;100.00;100837.44;5588089;31;34816;-68
2022/05/08 03:09:01;;;;;;;9.05;6.65;;;;;;;11.63;100.00;100836.44;5588934;31;34896;-68
2022/05/08 03:12:04;;;;;;;7.37;6.12;;;;;;;11.61;100.00;100835.78;5588636;31;34166;-68
2022/05/08 03:15:07;;;;;;;8.30;6.62;;;;;;;11.71;100.00;100839.12;5588611;31;34230;-68
2022/05/08 03:18:09;;;;;;;7.72;6.45;;;;;;;11.73;100.00;100835.34;5591193;31;35555;-68
2022/05/08 03:21:13;;;;;;;8.90;6.57;;;;;;;11.69;100.00;100836.63;5591017;31;34083;-68
2022/05/08 03:24:17;;;;;;;9.65;6.90;;;;;;;11.62;100.00;100840.94;5591431;31;34138;-68
2022/05/08 03:27:19;;;;;;;10.23;6.90;;;;;;;11.62;100.00;100845.41;5590999;31;34803;-68
2022/05/08 03:30:24;;;;;;;8.60;6.97;;;;;;;11.57;100.00;100845.91;5590111;31;36808;-68
2022/05/08 03:33:27;;;;;;;9.07;7.05;;;;;;;11.53;100.00;100843.72;5590954;31;34124;-68
2022/05/08 03:36:30;;;;;;;9.02;7.00;;;;;;;11.54;100.00;100848.88;5590973;31;34105;-68
2022/05/08 03:39:32;;;;;;;8.63;6.37;;;;;;;11.58;100.00;100847.56;5590970;31;34161;-68
2022/05/08 03:42:35;;;;;;;9.38;6.40;;;;;;;11.60;100.00;100848.25;5590148;31;34565;-68
2022/05/08 03:45:38;;;;;;;9.57;6.65;;;;;;;11.68;100.00;100858.88;5576886;31;33037;-68
2022/05/08 03:48:41;;;;;;;9.60;5.70;;;;;;;11.82;100.00;100857.44;5591066;31;34218;-68
2022/05/08 03:51:44;;;;;;;7.97;5.70;;;;;;;12.08;100.00;100862.62;5590966;31;34923;-67
2022/05/08 03:54:46;;;;;;;9.10;6.90;;;;;;;12.29;100.00;100870.13;5589865;31;33863;-68
2022/05/08 03:57:49;;;;;;;9.13;6.00;;;;;;;12.42;100.00;100876.59;5589846;31;36768;-68
2022/05/08 04:00:53;;;;;;;9.43;6.53;;;;;;;12.51;100.00;100877.41;5590947;31;34987;-68
2022/05/08 04:03:56;;;;;;;6.65;5.72;;;;;;;12.58;100.00;100881.91;5590686;31;34656;-68
2022/05/08 04:06:58;;;;;;;7.90;6.03;;;;;;;12.61;100.00;100886.03;5590551;31;33555;-68
2022/05/08 04:10:01;;;;;;;9.65;5.70;;;;;;;12.67;100.00;100889.88;5590587;31;33324;-68
2022/05/08 04:13:07;;;;;;;8.68;5.43;;;;;;;12.76;100.00;100892.34;5589979;31;33498;-68
2022/05/08 04:16:16;;;;;;;9.02;6.47;;;;;;;13.05;100.00;100894.44;5589704;31;35019;-68
2022/05/08 04:19:19;;;;;;;10.20;5.40;;;;;;;13.20;100.00;100900.75;5590427;31;34194;-67
2022/05/08 04:25:42;;;;;;;8.70;5.57;;;;;;;13.46;100.00;100897.78;5590358;31;34936;-68
2022/05/08 04:28:45;;;;;;;7.25;5.78;;;;;;;13.54;100.00;100900.44;5590287;31;34865;-68
2022/05/08 04:31:48;;;;;;;8.07;5.72;;;;;;;13.51;100.00;100903.44;5590363;31;34263;-68
2022/05/08 04:34:51;;;;;;;6.50;5.18;;;;;;;13.54;100.00;100900.44;5589464;31;33741;-68
2022/05/08 04:37:53;;;;;;;7.18;5.37;;;;;;;13.49;100.00;100900.97;5590326;31;34836;-68
2022/05/08 04:40:56;;;;;;;7.28;5.55;;;;;;;13.63;100.00;100907.38;5590251;31;35449;-68
2022/05/08 04:44:00;;;;;;;7.82;5.75;;;;;;;13.63;100.00;100903.88;5590278;31;34838;-68
2022/05/08 04:47:04;;;;;;;9.60;5.90;;;;;;;13.83;100.00;100905.94;5590391;31;34282;-68
2022/05/08 04:50:07;;;;;;;6.47;5.28;;;;;;;13.86;100.00;100905.56;5590156;31;34189;-68
2022/05/08 04:53:09;;;;;;;7.15;5.50;;;;;;;13.87;100.00;100909.09;5589412;31;32659;-68
2022/05/08 04:56:12;;;;;;;6.70;5.07;;;;;;;13.88;100.00;100906.25;5590123;31;34256;-68
2022/05/08 04:59:15;;;;;;;7.57;5.20;;;;;;;14.02;100.00;100907.31;5589478;31;33839;-68
2022/05/08 05:02:18;;;;;;;7.80;5.62;;;;;;;14.11;100.00;100914.25;5590026;31;34337;-68
2022/05/08 05:05:20;;;;;;;9.48;5.95;;;;;;;14.08;99.95;100922.63;5589963;31;34306;-68
2022/05/08 05:08:23;;;;;;;6.87;5.50;;;;;;;14.20;99.67;100920.34;5590341;31;34771;-68
2022/05/08 05:11:26;;;;;;;6.80;5.07;;;;;;;14.43;97.68;100918.53;5589066;31;34370;-68
2022/05/08 05:14:31;;;;;;;7.25;4.78;;;;;;;14.50;97.92;100937.34;5590007;31;34185;-68
2022/05/08 05:17:35;;;;;;;5.72;4.50;;;;;;;14.46;96.30;100930.72;5590373;31;34651;-68
2022/05/08 05:20:37;;;;;;;7.40;4.95;;;;;;;14.49;95.51;100935.69;5589035;31;32892;-68
2022/05/08 05:23:42;;;;;;;7.05;5.40;;;;;;;14.56;94.66;100937.47;5589893;31;35430;-68
2022/05/08 05:26:44;;;;;;;8.95;5.18;;;;;;;14.77;93.45;100939.44;5589285;31;32721;-68
2022/05/08 05:29:47;;;;;;;8.75;5.30;;;;;;;14.67;94.23;100937.00;5588896;31;33786;-68
2022/05/08 05:32:50;;;;;;;6.97;4.75;;;;;;;14.72;93.56;100941.81;5576208;31;32599;-68
2022/05/08 05:35:53;;;;;;;6.05;4.55;;;;;;;14.96;91.37;100936.22;5589805;31;34971;-68
2022/05/08 05:38:55;;;;;;;6.47;4.70;;;;;;;14.82;91.42;100938.87;5588905;31;34856;-68
2022/05/08 05:41:58;;;;;;;7.95;4.62;;;;;;;15.02;91.48;100935.50;5589331;31;33691;-68
2022/05/08 05:45:01;;;;;;;6.25;4.75;;;;;;;15.12;90.27;100945.94;5588795;31;32975;-67
2022/05/08 05:48:05;;;;;;;6.55;4.68;;;;;;;15.27;89.91;100937.91;5590029;31;34824;-68
2022/05/08 05:51:07;;;;;;;6.62;5.15;;;;;;;15.38;89.11;100937.47;5589912;31;34169;-67
2022/05/08 05:54:10;;;;;;;6.37;5.07;;;;;;;15.50;88.55;100946.66;5589844;31;34115;-68
2022/05/08 05:57:12;;;;;;;5.45;4.78;;;;;;;15.50;87.50;100943.97;5590005;31;34222;-68
2022/05/08 06:00:18;;;;;;;6.37;4.78;;;;;;;15.41;87.54;100932.56;5589059;31;32902;-68
2022/05/08 06:03:21;;;;;;;5.65;4.50;;;;;;;15.45;88.55;100943.72;5589172;31;34269;-67
2022/05/08 06:06:23;;;;;;;9.45;4.30;;;;;;;15.71;86.35;100938.75;5589460;31;34303;-67
2022/05/08 06:09:26;;;;;;;5.72;4.30;;;;;;;15.94;85.65;100938.59;5589551;31;34535;-67
2022/05/08 06:12:29;;;;;;;6.55;4.82;;;;;;;16.03;85.18;100938.28;5588472;31;32682;-68
2022/05/08 06:15:31;;;;;;;6.05;4.50;;;;;;;16.20;82.84;100944.22;5589517;31;34233;-68
2022/05/08 06:18:34;;;;;;;5.55;4.28;;;;;;;15.97;84.14;100943.56;5588721;31;33405;-67
2022/05/08 06:21:37;;;;;;;4.93;4.30;;;;;;;16.21;83.08;100937.03;5589725;31;34279;-67
2022/05/08 06:24:39;;;;;;;6.22;4.15;;;;;;;16.02;83.02;100941.97;5588412;31;33463;-67
2022/05/08 06:27:42;;;;;;;5.70;4.20;;;;;;;16.03;83.25;100938.28;5589255;31;34496;-67
2022/05/08 06:30:48;;;;;;;4.60;3.85;;;;;;;16.39;80.82;100945.44;5588443;31;32586;-67
2022/05/08 06:33:51;;;;;;;6.70;4.43;;;;;;;16.29;81.60;100944.94;5589470;31;34843;-67
2022/05/08 06:36:54;;;;;;;5.72;4.00;;;;;;;16.44;81.38;100935.81;5589094;31;34249;-68
2022/05/08 06:39:56;;;;;;;4.85;3.67;;;;;;;16.71;80.07;100939.56;5589159;31;34226;-67
2022/05/08 06:43:00;;;;;;;4.90;3.87;;;;;;;16.82;79.14;100939.03;5589046;31;34879;-68
2022/05/08 06:46:02;;;;;;;9.27;3.92;;;;;;;17.05;77.72;100944.12;5588411;31;34081;-68
2022/05/08 06:49:09;;;;;;;4.50;3.78;;;;;;;17.26;76.40;100951.28;5588626;31;34181;-67
2022/05/08 06:52:11;;;;;;;4.53;3.60;;;;;;;17.35;76.42;100950.94;5586253;31;34953;-68
2022/05/08 06:55:14;;;;;;;5.05;4.25;;;;;;;17.63;74.77;100956.25;5588003;31;34279;-68
2022/05/08 06:58:16;;;;;;;4.50;3.97;;;;;;;18.04;71.18;100948.16;5587964;31;32771;-68
2022/05/08 07:01:34;;;;;;;6.72;4.00;;;;;;;18.09;70.70;100953.75;5588932;31;34444;-68
2022/05/08 07:04:38;;;;;;;5.65;4.30;;;;;;;18.57;69.38;100948.28;5587957;31;33520;-68
2022/05/08 07:07:41;;;;;;;5.03;3.97;;;;;;;19.05;67.27;100949.69;5587995;31;32858;-67
2022/05/08 07:10:43;;;;;;;6.65;4.30;;;;;;;19.26;66.10;100945.13;5587798;31;33541;-68
2022/05/08 07:13:46;;;;;;;5.72;4.00;;;;;;;19.87;64.43;100945.53;5587767;31;33069;-68
2022/05/08 07:16:48;;;;;;;6.47;3.80;;;;;;;20.33;62.34;100940.72;5588332;31;34947;-67
2022/05/08 07:19:51;;;;;;;5.85;3.42;;;;;;;20.95;60.75;100946.25;5587810;31;32531;-68
2022/05/08 07:22:54;;;;;;;5.55;3.50;;;;;;;22.31;56.18;100946.72;5587585;31;32631;-68
2022/05/08 07:25:57;;;;;;;8.23;3.20;;;;;;;22.83;55.23;100939.66;5588345;31;34249;-68
2022/05/08 07:29:00;;;;;;;7.03;3.92;;;;;;;23.96;52.71;100942.69;5588457;31;34247;-68
2022/05/08 07:32:03;;;;;;;5.57;3.83;;;;;;;22.59;53.94;100955.03;5574482;31;32799;-68
2022/05/08 07:38:28;;;;;;;5.35;3.70;;;;;;;22.72;52.58;100949.41;5587229;31;34397;-67
2022/05/08 07:41:35;;;;;;;4.05;3.28;;;;;;;22.70;52.27;100948.84;5587157;31;33663;-67
2022/05/08 07:44:39;;;;;;;4.55;3.28;;;;;;;22.72;52.58;100951.28;5587271;31;32735;-68
2022/05/08 07:47:43;;;;;;;3.12;2.78;;;;;;;24.32;49.05;100946.06;5587096;31;33424;-67
2022/05/08 07:50:47;;;;;;;7.57;3.30;;;;;;;25.03;46.46;100948.87;5587147;31;32803;-67
2022/05/08 07:53:55;;;;;;;3.67;2.85;;;;;;;25.74;43.92;100946.31;5586752;31;33018;-67
2022/05/08 07:56:58;;;;;;;4.75;3.10;;;;;;;26.37;44.71;100942.94;5588110;31;34113;-68
2022/05/08 08:00:02;;;;;;;4.37;3.20;;;;;;;25.86;44.57;100945.09;5587099;31;34127;-69
2022/05/08 08:03:16;;;;;;;3.83;3.05;;;;;;;25.28;44.14;100948.41;5588731;31;33499;-68
2022/05/08 08:06:19;;;;;;;5.78;3.10;;;;;;;24.12;47.66;100938.34;5589844;31;32683;-67
2022/05/08 08:09:22;;;;;;;6.28;2.90;;;;;;;24.57;47.41;100939.19;5590704;31;34990;-68
2022/05/08 08:12:25;;;;;;;5.25;2.97;;;;;;;25.30;45.51;100950.91;5589581;31;33533;-67
2022/05/08 08:15:27;;;;;;;3.80;3.35;;;;;;;26.69;42.25;100957.34;5589553;31;32698;-66
2022/05/08 08:18:30;;;;;;;6.45;3.05;;;;;;;25.49;42.98;100953.06;5589164;31;32898;-68
2022/05/08 08:21:33;;;;;;;3.95;2.87;;;;;;;25.36;45.10;100956.16;5590078;31;34378;-68
2022/05/08 08:24:36;;;;;;;5.62;3.12;;;;;;;26.01;42.57;100955.31;5590118;31;34237;-68
2022/05/08 08:27:38;;;;;;;4.78;3.12;;;;;;;28.24;37.63;100948.63;5589642;31;33457;-69
2022/05/08 08:30:41;;;;;;;3.87;3.12;;;;;;;29.13;35.69;100950.81;5590061;31;34536;-67
2022/05/08 08:33:48;;;;;;;4.30;3.35;;;;;;;28.69;36.11;100962.31;5589932;31;34257;-69
2022/05/08 08:36:51;;;;;;;3.53;2.70;;;;;;;28.45;36.71;100959.31;5588416;31;34570;-67
2022/05/08 08:39:53;;;;;;;3.20;2.72;;;;;;;29.41;35.45;100960.34;5589048;31;34213;-69
2022/05/08 08:42:58;;;;;;;4.28;2.83;;;;;;;28.14;37.68;100954.06;5588922;31;32907;-67
2022/05/08 08:49:23;;;;;;;5.85;2.83;;;;;;;28.46;35.28;100960.13;5588493;31;33405;-67
2022/05/08 08:52:27;;;;;;;4.25;2.67;;;;;;;29.15;35.12;100963.09;5589766;31;34247;-68
2022/05/08 08:55:31;;;;;;;2.92;2.60;;;;;;;28.26;36.30;100960.13;5588852;31;33374;-68
2022/05/08 08:58:35;;;;;;;3.10;2.53;;;;;;;30.11;32.18;100956.47;5589606;31;34863;-67
2022/05/08 09:01:44;;;;;;;5.75;3.00;;;;;;;29.50;33.79;100962.22;5589432;31;34925;-67
2022/05/08 09:04:51;;;;;;;3.92;2.83;;;;;;;28.06;35.51;100949.94;5589827;31;34325;-67
2022/05/08 09:07:54;;;;;;;3.45;2.80;;;;;;;27.70;36.93;100950.91;5588401;31;32609;-67
2022/05/08 09:11:00;;;;;;;4.05;2.70;;;;;;;29.39;33.67;100957.06;5589568;31;34834;-67
2022/05/08 09:14:04;;;;;;;4.30;2.28;;;;;;;27.98;36.30;100945.03;5587694;31;32869;-67
2022/05/08 09:17:07;;;;;;;4.05;2.67;;;;;;;27.87;35.67;100946.91;5588613;31;33856;-67
2022/05/08 09:20:26;;;;;;;3.80;3.00;;;;;;;26.24;38.59;100946.88;5589451;31;34823;-66
2022/05/08 09:23:29;;;;;;;5.95;2.92;;;;;;;25.26;40.39;100950.59;5588272;31;32774;-67
2022/05/08 09:26:31;;;;;;;3.35;2.87;;;;;;;24.55;42.16;100951.34;5588179;31;32718;-65
2022/05/08 09:29:34;;;;;;;3.42;2.50;;;;;;;24.57;42.54;100950.03;5588475;31;32621;-67
2022/05/08 09:32:57;;;;;;;4.40;2.85;;;;;;;23.80;43.00;100944.25;5588252;31;34561;-66
2022/05/08 09:36:10;;;;;;;4.20;2.80;;;;;;;23.69;43.05;100949.72;5588720;31;32656;-66
2022/05/08 09:39:19;;;;;;;4.75;3.28;;;;;;;24.13;42.92;100942.72;5588758;31;33438;-67
2022/05/08 09:42:36;;;;;;;4.87;3.00;;;;;;;24.87;41.31;100941.59;5589467;31;35032;-67
2022/05/08 09:45:56;;;;;;;5.95;2.90;;;;;;;25.75;39.58;100935.22;5589395;31;35455;-67
2022/05/08 09:48:59;;;;;;;2.85;2.37;;;;;;;25.40;39.93;100934.72;5589379;31;35471;-67
2022/05/08 09:52:03;;;;;;;3.28;2.70;;;;;;;25.82;38.87;100940.44;5589096;31;34572;-67
2022/05/08 09:55:10;;;;;;;6.55;2.90;;;;;;;25.91;38.81;100942.44;5589615;31;34265;-67
2022/05/08 09:58:13;;;;;;;4.43;2.80;;;;;;;25.60;39.15;100939.63;5588725;31;32610;-68
2022/05/08 10:01:16;;;;;;;4.55;3.00;;;;;;;24.77;41.22;100930.56;5588476;31;33775;-68
2022/05/08 10:04:19;;;;;;;5.18;2.80;;;;;;;27.22;37.29;100926.44;5588930;31;32848;-68
2022/05/08 10:07:23;;;;;;;3.85;2.78;;;;;;;27.73;34.69;100926.69;5589639;31;34993;-67
2022/05/08 10:14:05;;;;;;;4.28;2.70;;;;;;;28.97;33.21;100919.97;5589295;31;34849;-68
2022/05/08 10:17:09;;;;;;;5.40;2.80;;;;;;;28.36;33.87;100917.28;5589194;31;34339;-67
2022/05/08 10:20:55;;;;;;;6.43;2.92;;;;;;;28.09;34.28;100919.38;5588215;31;32827;-69
2022/05/08 10:23:59;;;;;;;2.95;2.15;;;;;;;28.77;32.97;100909.91;5588532;31;32884;-67
2022/05/08 10:27:16;;;;;;;4.03;2.55;;;;;;;28.52;33.45;100913.44;5588438;31;34316;-67
2022/05/08 10:30:21;;;;;;;3.35;2.55;;;;;;;29.96;30.53;100915.53;5588144;31;33485;-68
2022/05/08 10:34:03;;;;;;;2.65;2.25;;;;;;;29.76;30.97;100906.31;5589071;31;34832;-66
2022/05/08 10:37:12;;;;;;;4.57;2.50;;;;;;;29.62;30.77;100904.47;5587948;31;33979;-67
2022/05/08 10:40:24;;;;;;;;;;;;;;;29.60;31.58;100906.66;5588929;31;35475;-68
2022/05/08 10:43:28;;;;;;;3.70;2.30;;;;;;;29.32;32.26;100906.25;5589109;31;34531;-66
2022/05/08 10:46:31;;;;;;;3.50;2.35;;;;;;;30.29;31.02;100902.97;5588966;31;34254;-68
2022/05/08 10:49:34;;;;;;;2.95;2.33;;;;;;;30.01;30.46;100905.38;5587901;31;34007;-67
2022/05/08 10:52:39;;;;;;;3.45;2.30;;;;;;;27.95;34.09;100899.19;5587914;31;32296;-66
2022/05/08 10:55:42;;;;;;;4.32;2.42;;;;;;;29.33;31.96;100899.69;5588037;31;32940;-67
2022/05/08 10:58:53;;;;;;;7.32;3.00;;;;;;;29.03;32.51;100896.19;5588625;31;34934;-67
2022/05/08 11:01:57;;;;;;;3.05;2.12;;;;;;;30.03;31.04;100894.94;5588019;31;34260;-67
2022/05/08 11:04:59;;;;;;;3.47;2.55;;;;;;;30.96;28.16;100897.44;5587706;31;33472;-67
2022/05/08 11:08:07;;;;;;;5.00;2.50;;;;;;;31.10;29.09;100891.28;5589012;31;34658;-68
2022/05/08 11:11:10;;;;;;;5.15;2.95;;;;;;;31.18;29.50;100893.41;5587614;31;32726;-67
2022/05/08 11:14:26;;;;;;;4.05;2.42;;;;;;;31.45;28.55;100888.94;5588425;31;34303;-67
2022/05/08 11:17:28;;;;;;;2.87;2.28;;;;;;;31.13;28.74;100879.75;5587691;31;32820;-67
2022/05/08 11:20:33;;;;;;;2.62;2.37;;;;;;;31.74;29.07;100877.03;5588662;31;34387;-66
2022/05/08 11:23:41;;;;;;;3.92;2.30;;;;;;;32.74;26.36;100871.84;5587179;31;32729;-68
2022/05/08 11:26:44;;;;;;;4.10;2.70;;;;;;;32.88;26.50;100871.03;5588672;31;34285;-69
2022/05/08 11:29:50;;;;;;;4.80;2.58;;;;;;;30.39;29.30;100870.03;5588229;31;34250;-67
2022/05/08 11:36:22;;;;;;;4.12;2.65;;;;;;;33.97;25.24;100865.44;5588047;31;34182;-66
2022/05/08 11:39:27;;;;;;;3.05;2.42;;;;;;;31.98;27.87;100852.25;5590294;31;34479;-66
2022/05/08 11:42:38;;;;;;;3.22;2.35;;;;;;;32.12;26.96;100847.66;5590792;31;34149;-67
2022/05/08 11:45:57;;;;;;;3.55;2.30;;;;;;;32.09;26.64;100853.75;5590556;31;34687;-67
2022/05/08 11:48:59;;;;;;;;;;;;;;;32.72;25.36;100854.06;5590095;31;33610;-67
2022/05/08 11:52:04;;;;;;;3.97;2.15;;;;;;;32.27;26.51;100855.66;5589695;31;34574;-67
2022/05/08 11:55:08;;;;;;;4.03;2.17;;;;;;;32.32;25.93;100850.06;5591065;31;34486;-67
2022/05/08 11:58:11;;;;;;;2.92;2.12;;;;;;;32.05;26.50;100850.75;5589761;31;34280;-67
2022/05/08 12:01:40;;;;;;;4.30;2.47;;;;;;;31.82;26.51;100843.44;5590729;31;34677;-68
2022/05/08 12:04:54;;;;;;;2.55;2.20;;;;;;;32.24;25.45;100848.03;5590028;31;32609;-67
2022/05/08 12:07:57;;;;;;;6.03;2.60;;;;;;;30.70;27.79;100846.75;5590561;31;34299;-67
2022/05/08 12:11:00;;;;;;;3.62;2.62;;;;;;;30.12;29.08;100840.41;5590597;31;34599;-67
2022/05/08 12:14:07;;;;;;;2.55;2.20;;;;;;;30.51;28.22;100841.19;5590415;31;35088;-67
2022/05/08 12:17:10;;;;;;;4.80;2.20;;;;;;;31.02;27.39;100838.75;5590295;31;34291;-67
2022/05/08 12:20:25;;;;;;;4.30;2.40;;;;;;;32.83;25.05;100847.22;5589403;31;33320;-67
2022/05/08 12:23:29;;;;;;;4.62;2.33;;;;;;;31.10;27.00;100837.28;5589576;31;33644;-67
2022/05/08 12:26:36;;;;;;;3.78;2.70;;;;;;;30.18;28.34;100822.88;5590275;31;34920;-67
2022/05/08 12:29:43;;;;;;;3.78;2.25;;;;;;;29.36;29.59;100825.31;5590370;31;34881;-67
2022/05/08 12:32:46;;;;;;;3.35;2.40;;;;;;;29.01;30.98;100814.50;5590040;31;34282;-66
2022/05/08 12:35:48;;;;;;;4.15;2.50;;;;;;;28.05;31.60;100815.47;5590501;31;35434;-67
2022/05/08 12:38:53;;;;;;;4.87;2.45;;;;;;;28.43;32.40;100811.38;5590110;31;34842;-66
2022/05/08 12:41:56;;;;;;;3.28;2.40;;;;;;;28.58;32.64;100815.16;5589349;31;32899;-66
2022/05/08 12:44:59;;;;;;;3.85;2.25;;;;;;;28.51;31.81;100807.28;5590226;31;34796;-67
2022/05/08 12:48:02;;;;;;;2.83;2.20;;;;;;;28.34;32.83;100799.37;5589271;31;32659;-67
2022/05/08 12:51:05;;;;;;;2.53;2.00;;;;;;;28.78;31.13;100796.84;5590107;31;35036;-67
2022/05/08 12:54:08;;;;;;;4.20;2.45;;;;;;;28.54;30.26;100795.81;5590152;31;34324;-67
2022/05/08 12:59:42;;;;;;;2.62;2.08;;;;;;;29.42;30.66;100795.22;5590127;31;34130;-68
2022/05/08 13:00:35;;;;;;;4.32;2.03;;;;;;;29.54;28.43;100796.50;5589013;31;33379;-67
2022/05/08 13:03:37;;;;;;;3.85;2.90;;;;;;;29.99;28.55;100797.31;5590174;31;34877;-67
2022/05/08 13:06:43;;;;;;;3.28;2.25;;;;;;;30.03;28.48;100798.38;5588849;31;33892;-66
2022/05/08 13:09:46;;;;;;;3.20;2.22;;;;;;;29.63;28.56;100792.06;5589153;31;32552;-68
2022/05/08 13:12:51;;;;;;;3.65;2.10;;;;;;;30.12;27.65;100788.44;5589684;31;34379;-68
2022/05/08 13:15:53;;;;;;;5.15;2.45;;;;;;;30.17;28.21;100781.00;5589347;31;32626;-67
2022/05/08 13:18:56;;;;;;;3.78;2.40;;;;;;;29.50;28.39;100786.41;5589847;31;34155;-66
2022/05/08 13:22:04;;;;;;;2.53;2.22;;;;;;;30.86;26.43;100789.87;5589764;31;35465;-67
2022/05/08 13:25:08;;;;;;;3.08;2.37;;;;;;;30.23;26.72;100788.06;5589791;31;33634;-67
2022/05/08 13:28:11;;;;;;;4.95;2.28;;;;;;;29.91;27.86;100784.25;5589175;31;32663;-67
2022/05/08 13:31:14;;;;;;;2.33;2.00;;;;;;;29.58;27.92;100789.37;5589020;31;34201;-66
2022/05/08 13:34:18;;;;;;;3.40;2.20;;;;;;;29.12;27.63;100786.06;5589094;31;34347;-66
2022/05/08 13:37:21;;;;;;;2.60;2.20;;;;;;;28.78;27.57;100779.66;5588526;31;34179;-67
2022/05/08 13:40:26;;;;;;;3.75;2.17;;;;;;;29.27;26.92;100769.59;5589509;31;35520;-68
2022/05/08 13:43:29;;;;;;;3.35;1.95;;;;;;;29.18;26.82;100775.94;5588844;31;32753;-67
2022/05/08 13:46:32;;;;;;;7.65;1.87;;;;;;;28.41;29.68;100780.00;5588506;31;34293;-69
2022/05/08 13:49:36;;;;;;;3.60;2.30;;;;;;;27.82;29.38;100771.56;5588557;31;32832;-67
2022/05/08 13:52:39;;;;;;;3.37;2.15;;;;;;;27.37;30.13;100766.81;5588745;31;32874;-67
2022/05/08 13:55:48;;;;;;;6.60;2.17;;;;;;;26.87;30.63;100759.34;5588449;31;32935;-68
2022/05/08 13:58:51;;;;;;;2.87;2.20;;;;;;;26.40;31.27;100757.41;5588843;31;33293;-66
2022/05/08 14:01:54;;;;;;;4.10;2.33;;;;;;;26.50;32.26;100759.37;5588591;31;35430;-67
2022/05/08 14:04:57;;;;;;;3.20;2.30;;;;;;;26.71;31.54;100761.12;5589056;31;34852;-69
2022/05/08 14:08:00;;;;;;;4.82;2.37;;;;;;;27.93;28.71;100757.62;5589102;31;34286;-68
2022/05/08 14:11:03;;;;;;;4.85;2.35;;;;;;;27.83;28.40;100748.66;5588995;31;34779;-69
2022/05/08 14:14:06;;;;;;;2.95;2.10;;;;;;;27.67;28.53;100751.38;5589114;31;34832;-66
2022/05/08 14:17:09;;;;;;;2.50;2.00;;;;;;;27.52;28.87;100750.53;5588460;31;32828;-68
2022/05/08 14:20:11;;;;;;;5.85;2.35;;;;;;;26.88;30.96;100753.59;5588141;31;32616;-68
2022/05/08 14:23:16;;;;;;;3.42;2.35;;;;;;;26.77;30.93;100746.47;5588600;31;33186;-68
2022/05/08 14:26:18;;;;;;;6.57;2.53;;;;;;;26.34;30.78;100740.22;5589038;31;35075;-66
2022/05/08 14:29:22;;;;;;;4.55;2.35;;;;;;;25.58;33.85;100749.69;5588210;31;33811;-67
2022/05/08 14:36:02;;;;;;;2.22;2.00;;;;;;;24.44;41.41;100738.81;5587745;31;33365;-66
2022/05/08 14:39:05;;;;;;;3.37;2.15;;;;;;;24.11;43.16;100741.50;5588655;31;34164;-67